sensor_id;sensor_type;location;lat;lon;timestamp;temperature;humidity
22035;DHT22;11181;51.002;4.356;2022-07-23T00:02:22;20.60;99.90
22035;DHT22;11181;51.002;4.356;2022-07-23T00:04:49;20.50;99.90
22035;DHT22;11181;51.002;4.356;2022-07-23T00:07:15;20.50;99.90
22035;DHT22;11181;51.002;4.356;2022-07-23T00:09:42;20.50;99.90
22035;DHT22;11181;51.002;4.356;2022-07-23T00:12:09;20.50;99.90
22035;DHT22;11181;51.002;4.356;2022-07-23T00:14:38;20.50;99.90
22035;DHT22;11181;51.002;4.356;2022-07-23T00:17:04;20.50;99.90
22035;DHT22;11181;51.002;4.356;2022-07-23T00:19:31;20.50;99.90
22035;DHT22;11181;51.002;4.356;2022-07-23T00:21:58;20.40;99.90
22035;DHT22;11181;51.002;4.356;2022-07-23T00:24:25;20.40;99.90
22035;DHT22;11181;51.002;4.356;2022-07-23T00:26:52;20.30;99.90
22035;DHT22;11181;51.002;4.356;2022-07-23T00:29:19;20.30;99.90
22035;DHT22;11181;51.002;4.356;2022-07-23T00:31:47;20.30;99.90
22035;DHT22;11181;51.002;4.356;2022-07-23T00:34:14;20.30;99.90
22035;DHT22;11181;51.002;4.356;2022-07-23T00:36:41;20.20;99.90
22035;DHT22;11181;51.002;4.356;2022-07-23T00:39:08;20.20;99.90
22035;DHT22;11181;51.002;4.356;2022-07-23T00:41:34;20.10;99.90
22035;DHT22;11181;51.002;4.356;2022-07-23T00:44:15;20.10;99.90
22035;DHT22;11181;51.002;4.356;2022-07-23T00:46:47;20.10;99.90
22035;DHT22;11181;51.002;4.356;2022-07-23T00:49:14;20.10;99.90
22035;DHT22;11181;51.002;4.356;2022-07-23T00:51:42;20.00;99.90
22035;DHT22;11181;51.002;4.356;2022-07-23T00:54:09;20.00;99.90
22035;DHT22;11181;51.002;4.356;2022-07-23T00:56:37;19.90;99.90
22035;DHT22;11181;51.002;4.356;2022-07-23T00:59:05;19.80;99.90
22035;DHT22;11181;51.002;4.356;2022-07-23T01:01:32;19.80;99.90
22035;DHT22;11181;51.002;4.356;2022-07-23T01:04:01;19.80;99.90
22035;DHT22;11181;51.002;4.356;2022-07-23T01:06:28;19.80;99.90
22035;DHT22;11181;51.002;4.356;2022-07-23T01:08:55;19.70;99.90
22035;DHT22;11181;51.002;4.356;2022-07-23T01:11:23;19.70;99.90
22035;DHT22;11181;51.002;4.356;2022-07-23T01:13:51;19.70;99.90
22035;DHT22;11181;51.002;4.356;2022-07-23T01:16:18;19.70;99.90
22035;DHT22;11181;51.002;4.356;2022-07-23T01:18:45;19.70;99.90
22035;DHT22;11181;51.002;4.356;2022-07-23T01:21:13;19.70;99.90
22035;DHT22;11181;51.002;4.356;2022-07-23T01:23:42;19.60;99.90
22035;DHT22;11181;51.002;4.356;2022-07-23T01:26:08;19.60;99.90
22035;DHT22;11181;51.002;4.356;2022-07-23T01:28:35;19.60;99.90
22035;DHT22;11181;51.002;4.356;2022-07-23T01:31:02;19.60;99.90
22035;DHT22;11181;51.002;4.356;2022-07-23T01:33:29;19.60;99.90
22035;DHT22;11181;51.002;4.356;2022-07-23T01:35:56;19.70;99.90
22035;DHT22;11181;51.002;4.356;2022-07-23T01:38:23;19.70;99.90
22035;DHT22;11181;51.002;4.356;2022-07-23T01:40:51;19.70;99.90
22035;DHT22;11181;51.002;4.356;2022-07-23T01:43:18;19.70;99.90
22035;DHT22;11181;51.002;4.356;2022-07-23T01:45:45;19.70;99.90
22035;DHT22;11181;51.002;4.356;2022-07-23T01:48:12;19.70;99.90
22035;DHT22;11181;51.002;4.356;2022-07-23T01:50:39;19.70;99.90
22035;DHT22;11181;51.002;4.356;2022-07-23T01:53:05;19.70;99.90
22035;DHT22;11181;51.002;4.356;2022-07-23T01:55:32;19.60;99.90
22035;DHT22;11181;51.002;4.356;2022-07-23T01:58:01;19.60;99.90
22035;DHT22;11181;51.002;4.356;2022-07-23T02:00:27;19.60;99.90
22035;DHT22;11181;51.002;4.356;2022-07-23T02:02:54;19.50;99.90
22035;DHT22;11181;51.002;4.356;2022-07-23T02:05:21;19.50;99.90
22035;DHT22;11181;51.002;4.356;2022-07-23T02:07:48;19.40;99.90
22035;DHT22;11181;51.002;4.356;2022-07-23T02:10:15;19.40;99.90
22035;DHT22;11181;51.002;4.356;2022-07-23T02:12:42;19.30;99.90
22035;DHT22;11181;51.002;4.356;2022-07-23T02:15:10;19.30;99.90
22035;DHT22;11181;51.002;4.356;2022-07-23T02:17:37;19.30;99.90
22035;DHT22;11181;51.002;4.356;2022-07-23T02:20:05;19.20;99.90
22035;DHT22;11181;51.002;4.356;2022-07-23T02:22:33;19.20;99.90
22035;DHT22;11181;51.002;4.356;2022-07-23T02:25:00;19.20;99.90
22035;DHT22;11181;51.002;4.356;2022-07-23T02:27:27;19.20;99.90
22035;DHT22;11181;51.002;4.356;2022-07-23T02:29:54;19.20;99.90
22035;DHT22;11181;51.002;4.356;2022-07-23T02:32:23;19.20;99.90
22035;DHT22;11181;51.002;4.356;2022-07-23T02:34:50;19.20;99.90
22035;DHT22;11181;51.002;4.356;2022-07-23T02:37:17;19.20;99.90
22035;DHT22;11181;51.002;4.356;2022-07-23T02:39:44;19.20;99.90
22035;DHT22;11181;51.002;4.356;2022-07-23T02:42:11;19.20;99.90
22035;DHT22;11181;51.002;4.356;2022-07-23T02:44:38;19.10;99.90
22035;DHT22;11181;51.002;4.356;2022-07-23T02:47:05;19.00;99.90
22035;DHT22;11181;51.002;4.356;2022-07-23T02:49:33;19.00;99.90
22035;DHT22;11181;51.002;4.356;2022-07-23T02:52:00;19.00;99.90
22035;DHT22;11181;51.002;4.356;2022-07-23T02:54:27;19.00;99.90
22035;DHT22;11181;51.002;4.356;2022-07-23T02:56:54;19.00;99.90
22035;DHT22;11181;51.002;4.356;2022-07-23T02:59:20;19.00;99.90
22035;DHT22;11181;51.002;4.356;2022-07-23T03:01:47;19.00;99.90
22035;DHT22;11181;51.002;4.356;2022-07-23T03:04:14;19.00;99.90
22035;DHT22;11181;51.002;4.356;2022-07-23T03:06:43;18.90;99.90
22035;DHT22;11181;51.002;4.356;2022-07-23T03:09:10;18.80;99.90
22035;DHT22;11181;51.002;4.356;2022-07-23T03:11:36;18.80;99.90
22035;DHT22;11181;51.002;4.356;2022-07-23T03:14:03;18.70;99.90
22035;DHT22;11181;51.002;4.356;2022-07-23T03:16:31;18.70;99.90
22035;DHT22;11181;51.002;4.356;2022-07-23T03:18:58;18.60;99.90
22035;DHT22;11181;51.002;4.356;2022-07-23T03:21:25;18.60;99.90
22035;DHT22;11181;51.002;4.356;2022-07-23T03:23:53;18.50;99.90
22035;DHT22;11181;51.002;4.356;2022-07-23T03:26:20;18.50;99.90
22035;DHT22;11181;51.002;4.356;2022-07-23T03:28:50;18.40;99.90
22035;DHT22;11181;51.002;4.356;2022-07-23T03:31:17;18.40;99.90
22035;DHT22;11181;51.002;4.356;2022-07-23T03:33:44;18.40;99.90
22035;DHT22;11181;51.002;4.356;2022-07-23T03:36:11;18.40;99.90
22035;DHT22;11181;51.002;4.356;2022-07-23T03:38:38;18.30;99.90
22035;DHT22;11181;51.002;4.356;2022-07-23T03:41:06;18.30;99.90
22035;DHT22;11181;51.002;4.356;2022-07-23T03:43:33;18.30;99.90
22035;DHT22;11181;51.002;4.356;2022-07-23T03:46:00;18.30;99.90
22035;DHT22;11181;51.002;4.356;2022-07-23T03:48:27;18.30;99.90
22035;DHT22;11181;51.002;4.356;2022-07-23T03:50:54;18.30;99.90
22035;DHT22;11181;51.002;4.356;2022-07-23T03:53:21;18.30;99.90
22035;DHT22;11181;51.002;4.356;2022-07-23T03:55:48;18.30;99.90
22035;DHT22;11181;51.002;4.356;2022-07-23T03:58:16;18.30;99.90
22035;DHT22;11181;51.002;4.356;2022-07-23T04:00:43;18.20;99.90
22035;DHT22;11181;51.002;4.356;2022-07-23T04:03:10;18.30;99.90
22035;DHT22;11181;51.002;4.356;2022-07-23T04:05:37;18.30;99.90
22035;DHT22;11181;51.002;4.356;2022-07-23T04:08:04;18.30;99.90
22035;DHT22;11181;51.002;4.356;2022-07-23T04:10:31;18.20;99.90
22035;DHT22;11181;51.002;4.356;2022-07-23T04:12:58;18.20;99.90
22035;DHT22;11181;51.002;4.356;2022-07-23T04:15:26;18.20;99.90
22035;DHT22;11181;51.002;4.356;2022-07-23T04:17:53;18.20;99.90
22035;DHT22;11181;51.002;4.356;2022-07-23T04:20:20;18.20;99.90
22035;DHT22;11181;51.002;4.356;2022-07-23T04:22:47;18.20;99.90
22035;DHT22;11181;51.002;4.356;2022-07-23T04:25:14;18.20;99.90
22035;DHT22;11181;51.002;4.356;2022-07-23T04:27:42;18.10;99.90
22035;DHT22;11181;51.002;4.356;2022-07-23T04:30:09;18.10;99.90
22035;DHT22;11181;51.002;4.356;2022-07-23T04:32:37;18.10;99.90
22035;DHT22;11181;51.002;4.356;2022-07-23T04:35:05;18.10;99.90
22035;DHT22;11181;51.002;4.356;2022-07-23T04:37:32;18.00;99.90
22035;DHT22;11181;51.002;4.356;2022-07-23T04:39:58;18.00;99.90
22035;DHT22;11181;51.002;4.356;2022-07-23T04:42:25;18.00;99.90
22035;DHT22;11181;51.002;4.356;2022-07-23T04:44:52;18.00;99.90
22035;DHT22;11181;51.002;4.356;2022-07-23T04:47:19;17.90;99.90
22035;DHT22;11181;51.002;4.356;2022-07-23T04:49:47;18.00;99.90
22035;DHT22;11181;51.002;4.356;2022-07-23T04:52:14;18.00;99.90
22035;DHT22;11181;51.002;4.356;2022-07-23T04:54:41;18.00;99.90
22035;DHT22;11181;51.002;4.356;2022-07-23T04:57:08;18.00;99.90
22035;DHT22;11181;51.002;4.356;2022-07-23T04:59:35;18.10;99.90
22035;DHT22;11181;51.002;4.356;2022-07-23T05:02:02;18.20;99.90
22035;DHT22;11181;51.002;4.356;2022-07-23T05:04:29;18.20;99.90
22035;DHT22;11181;51.002;4.356;2022-07-23T05:06:58;18.30;99.90
22035;DHT22;11181;51.002;4.356;2022-07-23T05:09:25;18.30;99.90
22035;DHT22;11181;51.002;4.356;2022-07-23T05:11:52;18.30;99.90
22035;DHT22;11181;51.002;4.356;2022-07-23T05:14:19;18.30;99.90
22035;DHT22;11181;51.002;4.356;2022-07-23T05:16:46;18.30;99.90
22035;DHT22;11181;51.002;4.356;2022-07-23T05:19:13;18.30;99.90
22035;DHT22;11181;51.002;4.356;2022-07-23T05:21:39;18.40;99.90
22035;DHT22;11181;51.002;4.356;2022-07-23T05:24:08;18.50;99.90
22035;DHT22;11181;51.002;4.356;2022-07-23T05:26:35;18.70;99.90
22035;DHT22;11181;51.002;4.356;2022-07-23T05:29:02;18.80;99.90
22035;DHT22;11181;51.002;4.356;2022-07-23T05:31:28;18.90;99.90
22035;DHT22;11181;51.002;4.356;2022-07-23T05:33:55;19.00;99.90
22035;DHT22;11181;51.002;4.356;2022-07-23T05:36:22;19.10;99.90
22035;DHT22;11181;51.002;4.356;2022-07-23T05:38:49;19.20;99.90
22035;DHT22;11181;51.002;4.356;2022-07-23T05:41:17;19.40;99.90
22035;DHT22;11181;51.002;4.356;2022-07-23T05:43:44;19.40;99.90
22035;DHT22;11181;51.002;4.356;2022-07-23T05:46:11;19.50;99.90
22035;DHT22;11181;51.002;4.356;2022-07-23T05:48:38;19.70;99.90
22035;DHT22;11181;51.002;4.356;2022-07-23T05:51:05;19.70;99.90
22035;DHT22;11181;51.002;4.356;2022-07-23T05:53:33;19.60;99.90
22035;DHT22;11181;51.002;4.356;2022-07-23T05:56:00;19.60;99.90
22035;DHT22;11181;51.002;4.356;2022-07-23T05:58:28;19.40;99.90
22035;DHT22;11181;51.002;4.356;2022-07-23T06:00:55;19.10;99.90
22035;DHT22;11181;51.002;4.356;2022-07-23T06:03:22;19.00;99.90
22035;DHT22;11181;51.002;4.356;2022-07-23T06:05:49;19.10;99.90
22035;DHT22;11181;51.002;4.356;2022-07-23T06:08:16;19.20;99.90
22035;DHT22;11181;51.002;4.356;2022-07-23T06:10:43;19.40;99.90
22035;DHT22;11181;51.002;4.356;2022-07-23T06:13:10;19.50;99.90
22035;DHT22;11181;51.002;4.356;2022-07-23T06:15:38;19.70;99.90
22035;DHT22;11181;51.002;4.356;2022-07-23T06:18:05;19.80;99.90
22035;DHT22;11181;51.002;4.356;2022-07-23T06:20:32;19.80;99.90
22035;DHT22;11181;51.002;4.356;2022-07-23T06:22:59;19.80;99.90
22035;DHT22;11181;51.002;4.356;2022-07-23T06:25:26;20.00;99.90
22035;DHT22;11181;51.002;4.356;2022-07-23T06:27:53;20.20;99.90
22035;DHT22;11181;51.002;4.356;2022-07-23T06:30:20;20.10;99.90
22035;DHT22;11181;51.002;4.356;2022-07-23T06:32:48;20.00;99.90
22035;DHT22;11181;51.002;4.356;2022-07-23T06:35:16;20.00;99.90
22035;DHT22;11181;51.002;4.356;2022-07-23T06:37:44;20.00;99.90
22035;DHT22;11181;51.002;4.356;2022-07-23T06:40:11;20.10;99.90
22035;DHT22;11181;51.002;4.356;2022-07-23T06:42:38;20.30;99.90
22035;DHT22;11181;51.002;4.356;2022-07-23T06:45:06;20.50;99.90
22035;DHT22;11181;51.002;4.356;2022-07-23T06:47:34;20.80;99.90
22035;DHT22;11181;51.002;4.356;2022-07-23T06:50:03;21.00;99.90
22035;DHT22;11181;51.002;4.356;2022-07-23T06:52:30;21.10;99.90
22035;DHT22;11181;51.002;4.356;2022-07-23T06:54:57;21.10;99.90
22035;DHT22;11181;51.002;4.356;2022-07-23T06:57:24;21.30;99.90
22035;DHT22;11181;51.002;4.356;2022-07-23T06:59:52;21.40;99.90
22035;DHT22;11181;51.002;4.356;2022-07-23T07:02:19;21.50;99.90
22035;DHT22;11181;51.002;4.356;2022-07-23T07:04:46;21.40;99.90
22035;DHT22;11181;51.002;4.356;2022-07-23T07:07:14;21.40;99.90
22035;DHT22;11181;51.002;4.356;2022-07-23T07:09:41;21.60;99.90
22035;DHT22;11181;51.002;4.356;2022-07-23T07:12:08;21.80;99.90
22035;DHT22;11181;51.002;4.356;2022-07-23T07:14:35;22.00;99.90
22035;DHT22;11181;51.002;4.356;2022-07-23T07:17:02;21.80;99.90
22035;DHT22;11181;51.002;4.356;2022-07-23T07:19:29;22.00;99.90
22035;DHT22;11181;51.002;4.356;2022-07-23T07:21:56;21.80;99.90
22035;DHT22;11181;51.002;4.356;2022-07-23T07:24:24;22.00;99.90
22035;DHT22;11181;51.002;4.356;2022-07-23T07:26:51;21.90;99.90
22035;DHT22;11181;51.002;4.356;2022-07-23T07:29:18;22.20;99.90
22035;DHT22;11181;51.002;4.356;2022-07-23T07:31:45;22.30;99.90
22035;DHT22;11181;51.002;4.356;2022-07-23T07:34:12;22.50;99.90
22035;DHT22;11181;51.002;4.356;2022-07-23T07:36:39;22.70;99.90
22035;DHT22;11181;51.002;4.356;2022-07-23T07:39:06;22.60;99.90
22035;DHT22;11181;51.002;4.356;2022-07-23T07:41:37;22.90;99.90
22035;DHT22;11181;51.002;4.356;2022-07-23T07:44:05;23.20;99.90
22035;DHT22;11181;51.002;4.356;2022-07-23T07:46:31;23.10;99.90
22035;DHT22;11181;51.002;4.356;2022-07-23T07:48:58;23.30;99.90
22035;DHT22;11181;51.002;4.356;2022-07-23T07:51:26;23.30;99.90
22035;DHT22;11181;51.002;4.356;2022-07-23T07:53:54;23.50;99.90
22035;DHT22;11181;51.002;4.356;2022-07-23T07:56:21;23.30;99.90
22035;DHT22;11181;51.002;4.356;2022-07-23T07:58:49;23.50;99.90
22035;DHT22;11181;51.002;4.356;2022-07-23T08:01:16;23.60;99.90
22035;DHT22;11181;51.002;4.356;2022-07-23T08:03:44;23.70;99.90
22035;DHT22;11181;51.002;4.356;2022-07-23T08:06:11;23.90;99.90
22035;DHT22;11181;51.002;4.356;2022-07-23T08:08:38;24.10;99.90
22035;DHT22;11181;51.002;4.356;2022-07-23T08:11:05;24.30;99.90
22035;DHT22;11181;51.002;4.356;2022-07-23T08:13:32;23.70;99.90
22035;DHT22;11181;51.002;4.356;2022-07-23T08:16:00;23.90;99.90
22035;DHT22;11181;51.002;4.356;2022-07-23T08:18:27;24.10;99.90
22035;DHT22;11181;51.002;4.356;2022-07-23T08:20:54;24.60;99.90
22035;DHT22;11181;51.002;4.356;2022-07-23T08:23:21;24.70;99.90
22035;DHT22;11181;51.002;4.356;2022-07-23T08:25:48;24.70;99.90
22035;DHT22;11181;51.002;4.356;2022-07-23T08:28:15;24.40;99.90
22035;DHT22;11181;51.002;4.356;2022-07-23T08:30:44;24.60;99.90
22035;DHT22;11181;51.002;4.356;2022-07-23T08:33:14;24.80;99.90
22035;DHT22;11181;51.002;4.356;2022-07-23T08:35:43;25.10;99.90
22035;DHT22;11181;51.002;4.356;2022-07-23T08:38:13;25.10;99.90
22035;DHT22;11181;51.002;4.356;2022-07-23T08:40:41;25.10;99.90
22035;DHT22;11181;51.002;4.356;2022-07-23T08:43:11;25.40;99.90
22035;DHT22;11181;51.002;4.356;2022-07-23T08:45:40;25.60;99.90
22035;DHT22;11181;51.002;4.356;2022-07-23T08:48:11;25.80;99.90
22035;DHT22;11181;51.002;4.356;2022-07-23T08:50:43;26.10;99.90
22035;DHT22;11181;51.002;4.356;2022-07-23T08:53:11;25.80;99.90
22035;DHT22;11181;51.002;4.356;2022-07-23T08:55:38;25.90;99.90
22035;DHT22;11181;51.002;4.356;2022-07-23T08:58:06;26.10;99.90
22035;DHT22;11181;51.002;4.356;2022-07-23T09:00:33;26.30;99.90
22035;DHT22;11181;51.002;4.356;2022-07-23T09:03:00;26.40;99.90
22035;DHT22;11181;51.002;4.356;2022-07-23T09:05:27;26.30;99.90
22035;DHT22;11181;51.002;4.356;2022-07-23T09:08:06;26.30;99.90
22035;DHT22;11181;51.002;4.356;2022-07-23T09:10:48;26.10;99.90
22035;DHT22;11181;51.002;4.356;2022-07-23T09:13:30;26.50;99.90
22035;DHT22;11181;51.002;4.356;2022-07-23T09:15:59;26.80;99.90
22035;DHT22;11181;51.002;4.356;2022-07-23T09:18:31;27.10;99.90
22035;DHT22;11181;51.002;4.356;2022-07-23T09:21:12;27.40;99.90
22035;DHT22;11181;51.002;4.356;2022-07-23T09:23:43;27.50;99.90
22035;DHT22;11181;51.002;4.356;2022-07-23T09:26:19;27.80;99.90
22035;DHT22;11181;51.002;4.356;2022-07-23T09:28:57;27.90;99.90
22035;DHT22;11181;51.002;4.356;2022-07-23T09:31:25;28.00;99.90
22035;DHT22;11181;51.002;4.356;2022-07-23T09:34:10;28.10;99.90
22035;DHT22;11181;51.002;4.356;2022-07-23T09:36:37;28.30;99.90
22035;DHT22;11181;51.002;4.356;2022-07-23T09:39:06;28.30;99.90
22035;DHT22;11181;51.002;4.356;2022-07-23T09:41:39;28.40;99.90
22035;DHT22;11181;51.002;4.356;2022-07-23T09:44:11;28.50;99.90
22035;DHT22;11181;51.002;4.356;2022-07-23T09:46:38;28.80;99.90
22035;DHT22;11181;51.002;4.356;2022-07-23T09:49:15;29.00;99.90
22035;DHT22;11181;51.002;4.356;2022-07-23T09:51:50;29.00;98.10
22035;DHT22;11181;51.002;4.356;2022-07-23T09:54:24;29.10;98.80
22035;DHT22;11181;51.002;4.356;2022-07-23T09:56:52;29.10;98.70
22035;DHT22;11181;51.002;4.356;2022-07-23T09:59:22;29.10;96.20
22035;DHT22;11181;51.002;4.356;2022-07-23T10:01:50;29.30;97.80
22035;DHT22;11181;51.002;4.356;2022-07-23T10:04:18;29.60;96.00
22035;DHT22;11181;51.002;4.356;2022-07-23T10:06:46;29.60;98.50
22035;DHT22;11181;51.002;4.356;2022-07-23T10:09:16;29.80;96.20
22035;DHT22;11181;51.002;4.356;2022-07-23T10:11:49;29.90;94.70
22035;DHT22;11181;51.002;4.356;2022-07-23T10:14:17;30.00;94.60
22035;DHT22;11181;51.002;4.356;2022-07-23T10:16:45;30.10;94.70
22035;DHT22;11181;51.002;4.356;2022-07-23T10:19:12;30.10;95.60
22035;DHT22;11181;51.002;4.356;2022-07-23T10:21:44;30.20;95.60
22035;DHT22;11181;51.002;4.356;2022-07-23T10:24:18;30.30;95.60
22035;DHT22;11181;51.002;4.356;2022-07-23T10:27:09;30.40;93.40
22035;DHT22;11181;51.002;4.356;2022-07-23T10:29:47;30.70;95.40
22035;DHT22;11181;51.002;4.356;2022-07-23T10:32:23;30.90;92.70
22035;DHT22;11181;51.002;4.356;2022-07-23T10:34:58;31.10;92.20
22035;DHT22;11181;51.002;4.356;2022-07-23T10:37:34;31.40;91.90
22035;DHT22;11181;51.002;4.356;2022-07-23T10:40:10;31.40;88.80
22035;DHT22;11181;51.002;4.356;2022-07-23T10:42:39;31.10;90.60
22035;DHT22;11181;51.002;4.356;2022-07-23T10:45:31;31.10;91.00
22035;DHT22;11181;51.002;4.356;2022-07-23T10:48:12;30.80;90.00
22035;DHT22;11181;51.002;4.356;2022-07-23T10:50:41;30.80;90.90
22035;DHT22;11181;51.002;4.356;2022-07-23T10:53:14;30.70;90.10
22035;DHT22;11181;51.002;4.356;2022-07-23T10:55:45;30.70;90.80
22035;DHT22;11181;51.002;4.356;2022-07-23T10:58:19;30.80;87.90
22035;DHT22;11181;51.002;4.356;2022-07-23T11:00:46;31.00;82.90
22035;DHT22;11181;51.002;4.356;2022-07-23T11:03:31;31.10;83.20
22035;DHT22;11181;51.002;4.356;2022-07-23T11:06:04;31.10;82.60
22035;DHT22;11181;51.002;4.356;2022-07-23T11:08:31;30.90;81.40
22035;DHT22;11181;51.002;4.356;2022-07-23T11:11:09;30.60;83.40
22035;DHT22;11181;51.002;4.356;2022-07-23T11:13:48;30.90;82.20
22035;DHT22;11181;51.002;4.356;2022-07-23T11:16:20;31.00;81.50
22035;DHT22;11181;51.002;4.356;2022-07-23T11:18:55;31.10;83.00
22035;DHT22;11181;51.002;4.356;2022-07-23T11:21:45;31.40;83.40
22035;DHT22;11181;51.002;4.356;2022-07-23T11:24:15;31.60;79.30
22035;DHT22;11181;51.002;4.356;2022-07-23T11:26:50;31.60;79.40
22035;DHT22;11181;51.002;4.356;2022-07-23T11:29:49;31.80;82.40
22035;DHT22;11181;51.002;4.356;2022-07-23T11:32:36;32.00;81.10
22035;DHT22;11181;51.002;4.356;2022-07-23T11:35:22;32.00;83.00
22035;DHT22;11181;51.002;4.356;2022-07-23T11:37:51;32.00;80.50
22035;DHT22;11181;51.002;4.356;2022-07-23T11:40:24;32.20;78.40
22035;DHT22;11181;51.002;4.356;2022-07-23T11:42:53;32.50;79.60
22035;DHT22;11181;51.002;4.356;2022-07-23T11:45:22;32.70;77.80
22035;DHT22;11181;51.002;4.356;2022-07-23T11:47:49;32.80;75.50
22035;DHT22;11181;51.002;4.356;2022-07-23T11:50:16;32.90;77.00
22035;DHT22;11181;51.002;4.356;2022-07-23T11:52:43;32.90;77.50
22035;DHT22;11181;51.002;4.356;2022-07-23T11:55:11;33.10;75.10
22035;DHT22;11181;51.002;4.356;2022-07-23T11:57:39;33.00;72.90
22035;DHT22;11181;51.002;4.356;2022-07-23T12:00:09;33.10;74.50
22035;DHT22;11181;51.002;4.356;2022-07-23T12:02:41;33.20;74.00
22035;DHT22;11181;51.002;4.356;2022-07-23T12:05:12;33.30;72.40
22035;DHT22;11181;51.002;4.356;2022-07-23T12:07:40;33.30;72.70
22035;DHT22;11181;51.002;4.356;2022-07-23T12:10:11;33.20;72.90
22035;DHT22;11181;51.002;4.356;2022-07-23T12:12:40;33.30;73.90
22035;DHT22;11181;51.002;4.356;2022-07-23T12:15:09;33.30;72.50
22035;DHT22;11181;51.002;4.356;2022-07-23T12:17:39;33.30;74.30
22035;DHT22;11181;51.002;4.356;2022-07-23T12:20:11;33.40;72.10
22035;DHT22;11181;51.002;4.356;2022-07-23T12:22:41;33.60;72.30
22035;DHT22;11181;51.002;4.356;2022-07-23T12:25:10;33.40;73.00
22035;DHT22;11181;51.002;4.356;2022-07-23T12:27:38;33.40;72.30
22035;DHT22;11181;51.002;4.356;2022-07-23T12:30:18;33.40;71.10
22035;DHT22;11181;51.002;4.356;2022-07-23T12:32:47;33.30;71.70
22035;DHT22;11181;51.002;4.356;2022-07-23T12:35:16;33.30;71.50
22035;DHT22;11181;51.002;4.356;2022-07-23T12:37:45;33.30;74.80
22035;DHT22;11181;51.002;4.356;2022-07-23T12:40:20;33.30;71.50
22035;DHT22;11181;51.002;4.356;2022-07-23T12:42:48;33.60;73.40
22035;DHT22;11181;51.002;4.356;2022-07-23T12:45:16;33.70;72.60
22035;DHT22;11181;51.002;4.356;2022-07-23T12:48:04;33.60;73.90
22035;DHT22;11181;51.002;4.356;2022-07-23T12:50:48;33.70;73.10
22035;DHT22;11181;51.002;4.356;2022-07-23T12:53:16;33.80;74.60
22035;DHT22;11181;51.002;4.356;2022-07-23T12:55:45;34.00;72.60
22035;DHT22;11181;51.002;4.356;2022-07-23T12:58:15;34.00;74.70
22035;DHT22;11181;51.002;4.356;2022-07-23T13:03:32;33.90;72.10
22035;DHT22;11181;51.002;4.356;2022-07-23T13:06:02;33.80;75.70
22035;DHT22;11181;51.002;4.356;2022-07-23T13:08:31;34.00;76.70
22035;DHT22;11181;51.002;4.356;2022-07-23T13:10:59;34.20;75.00
22035;DHT22;11181;51.002;4.356;2022-07-23T13:13:29;34.20;72.70
22035;DHT22;11181;51.002;4.356;2022-07-23T13:15:57;34.50;73.00
22035;DHT22;11181;51.002;4.356;2022-07-23T13:18:25;34.70;74.00
22035;DHT22;11181;51.002;4.356;2022-07-23T13:20:52;34.70;72.80
22035;DHT22;11181;51.002;4.356;2022-07-23T13:23:21;34.60;71.90
22035;DHT22;11181;51.002;4.356;2022-07-23T13:25:49;34.40;72.70
22035;DHT22;11181;51.002;4.356;2022-07-23T13:28:17;34.30;71.80
22035;DHT22;11181;51.002;4.356;2022-07-23T13:30:45;34.10;72.70
22035;DHT22;11181;51.002;4.356;2022-07-23T13:33:13;33.70;72.90
22035;DHT22;11181;51.002;4.356;2022-07-23T13:35:40;33.60;73.70
22035;DHT22;11181;51.002;4.356;2022-07-23T13:38:07;33.50;72.40
22035;DHT22;11181;51.002;4.356;2022-07-23T13:40:36;33.50;74.80
22035;DHT22;11181;51.002;4.356;2022-07-23T13:43:05;33.50;74.70
22035;DHT22;11181;51.002;4.356;2022-07-23T13:45:32;33.40;74.80
22035;DHT22;11181;51.002;4.356;2022-07-23T13:48:00;33.50;75.50
22035;DHT22;11181;51.002;4.356;2022-07-23T13:50:27;33.50;74.50
22035;DHT22;11181;51.002;4.356;2022-07-23T13:52:53;33.40;74.70
22035;DHT22;11181;51.002;4.356;2022-07-23T13:55:21;33.40;74.00
22035;DHT22;11181;51.002;4.356;2022-07-23T13:57:49;33.60;74.30
22035;DHT22;11181;51.002;4.356;2022-07-23T14:00:16;33.90;74.60
22035;DHT22;11181;51.002;4.356;2022-07-23T14:02:43;33.90;73.80
22035;DHT22;11181;51.002;4.356;2022-07-23T14:05:11;34.10;73.30
22035;DHT22;11181;51.002;4.356;2022-07-23T14:07:38;34.30;72.90
22035;DHT22;11181;51.002;4.356;2022-07-23T14:10:09;34.50;73.70
22035;DHT22;11181;51.002;4.356;2022-07-23T14:12:36;34.10;73.40
22035;DHT22;11181;51.002;4.356;2022-07-23T14:15:06;33.90;75.40
22035;DHT22;11181;51.002;4.356;2022-07-23T14:17:34;34.20;74.10
22035;DHT22;11181;51.002;4.356;2022-07-23T14:20:02;34.30;73.50
22035;DHT22;11181;51.002;4.356;2022-07-23T14:22:29;34.30;71.80
22035;DHT22;11181;51.002;4.356;2022-07-23T14:24:56;34.30;72.30
22035;DHT22;11181;51.002;4.356;2022-07-23T14:27:24;34.30;72.20
22035;DHT22;11181;51.002;4.356;2022-07-23T14:29:51;34.40;72.70
22035;DHT22;11181;51.002;4.356;2022-07-23T14:32:20;34.50;72.80
22035;DHT22;11181;51.002;4.356;2022-07-23T14:34:47;34.40;71.10
22035;DHT22;11181;51.002;4.356;2022-07-23T14:37:15;34.20;71.80
22035;DHT22;11181;51.002;4.356;2022-07-23T14:39:43;34.20;73.40
22035;DHT22;11181;51.002;4.356;2022-07-23T14:42:10;34.30;73.80
22035;DHT22;11181;51.002;4.356;2022-07-23T14:44:37;34.20;72.70
22035;DHT22;11181;51.002;4.356;2022-07-23T14:47:05;34.30;71.80
22035;DHT22;11181;51.002;4.356;2022-07-23T14:49:34;34.10;71.70
22035;DHT22;11181;51.002;4.356;2022-07-23T14:52:02;34.10;71.70
22035;DHT22;11181;51.002;4.356;2022-07-23T14:54:29;34.10;71.70
22035;DHT22;11181;51.002;4.356;2022-07-23T14:56:57;34.00;72.00
22035;DHT22;11181;51.002;4.356;2022-07-23T14:59:26;34.10;72.70
22035;DHT22;11181;51.002;4.356;2022-07-23T15:01:53;34.20;74.10
22035;DHT22;11181;51.002;4.356;2022-07-23T15:04:20;34.00;73.70
22035;DHT22;11181;51.002;4.356;2022-07-23T15:06:49;33.80;74.30
22035;DHT22;11181;51.002;4.356;2022-07-23T15:09:16;33.90;72.80
22035;DHT22;11181;51.002;4.356;2022-07-23T15:11:43;34.10;73.20
22035;DHT22;11181;51.002;4.356;2022-07-23T15:14:10;34.30;74.10
22035;DHT22;11181;51.002;4.356;2022-07-23T15:16:36;34.50;74.40
22035;DHT22;11181;51.002;4.356;2022-07-23T15:19:04;34.50;71.60
22035;DHT22;11181;51.002;4.356;2022-07-23T15:21:31;34.40;71.90
22035;DHT22;11181;51.002;4.356;2022-07-23T15:23:59;34.30;72.40
22035;DHT22;11181;51.002;4.356;2022-07-23T15:26:27;34.10;71.40
22035;DHT22;11181;51.002;4.356;2022-07-23T15:28:54;33.90;70.90
22035;DHT22;11181;51.002;4.356;2022-07-23T15:31:22;33.90;70.90
22035;DHT22;11181;51.002;4.356;2022-07-23T15:33:49;33.90;71.50
22035;DHT22;11181;51.002;4.356;2022-07-23T15:36:17;33.80;72.00
22035;DHT22;11181;51.002;4.356;2022-07-23T15:38:44;33.80;71.50
22035;DHT22;11181;51.002;4.356;2022-07-23T15:41:13;33.50;71.30
22035;DHT22;11181;51.002;4.356;2022-07-23T15:43:40;33.50;72.80